logo
Search for airport 
image banner adimage banner adimage banner ad
image banner ad

YMBF - Millers Bluff

Located in Millers Bluff, Australia

ICAO - , IATA -

Data provided by Airmate  

General information

Coordinates: S41°55'7" E147°9'49"
Elevation is 3805 feet MSL.
Magnetic variation is 14° East
View others Airports in Tasmania

Operational data

Special qualification required
Current time UTC:
Current local time:
Weather at : YMLT - Launceston ( 42 km )
METAR: YMLT 140330Z AUTO 32011KT 9999 // BKN038 20/12 Q1017 RF00.0/000.2
TAF: TAF AMD YMLT 132322Z 1400/1500 33012KT 9999 SCT035 FM141000 33008KT CAVOK PROB30 1416/1422 0200 FG
View NOTAMs / SUP AIP / TFR affecting this airport [VIEW]
Communications frequencies: [VIEW]

Runways:

Airport contact information

Address: Millers Bluff Australia

Satellite view of YMBF